sensor_id;sensor_type;location;lat;lon;timestamp;pressure;altitude;pressure_sealevel;temperature;humidity
48644;BME280;34928;37.302;-121.984;2023-02-12T00:02:12;100582.0;;;25.68;25.38
48644;BME280;34928;37.302;-121.984;2023-02-12T00:12:17;100598.0;;;25.71;25.05
48644;BME280;34928;37.302;-121.984;2023-02-12T00:22:22;100596.0;;;25.58;24.96
48644;BME280;34928;37.302;-121.984;2023-02-12T00:32:27;100621.0;;;25.73;24.82
48644;BME280;34928;37.302;-121.984;2023-02-12T00:42:32;100634.0;;;25.77;24.64
48644;BME280;34928;37.302;-121.984;2023-02-12T00:52:38;100646.0;;;25.64;24.91
48644;BME280;34928;37.302;-121.984;2023-02-12T01:02:42;100643.0;;;25.68;25.18
48644;BME280;34928;37.302;-121.984;2023-02-12T01:12:48;100646.0;;;25.71;25.04
48644;BME280;34928;37.302;-121.984;2023-02-12T01:22:52;100661.0;;;25.59;25.14
48644;BME280;34928;37.302;-121.984;2023-02-12T01:32:57;100637.0;;;25.82;25.05
48644;BME280;34928;37.302;-121.984;2023-02-12T01:43:05;100669.0;;;25.84;24.99
48644;BME280;34928;37.302;-121.984;2023-02-12T01:53:14;100706.0;;;25.60;24.54
48644;BME280;34928;37.302;-121.984;2023-02-12T02:03:17;100701.0;;;26.16;23.98
48644;BME280;34928;37.302;-121.984;2023-02-12T02:13:22;100692.0;;;26.37;24.21
48644;BME280;34928;37.302;-121.984;2023-02-12T02:23:52;100706.0;;;26.18;23.89
48644;BME280;34928;37.302;-121.984;2023-02-12T02:34:07;100711.0;;;26.38;24.25
48644;BME280;34928;37.302;-121.984;2023-02-12T02:44:17;100730.0;;;26.53;24.26
48644;BME280;34928;37.302;-121.984;2023-02-12T02:54:26;100734.0;;;26.75;23.96
48644;BME280;34928;37.302;-121.984;2023-02-12T03:04:34;100757.0;;;26.31;24.17
48644;BME280;34928;37.302;-121.984;2023-02-12T03:14:47;100778.0;;;26.66;23.84
48644;BME280;34928;37.302;-121.984;2023-02-12T03:24:56;100796.0;;;26.74;23.74
48644;BME280;34928;37.302;-121.984;2023-02-12T03:35:09;100802.0;;;26.52;23.62
48644;BME280;34928;37.302;-121.984;2023-02-12T03:45:26;100817.0;;;26.85;23.53
48644;BME280;34928;37.302;-121.984;2023-02-12T03:55:35;100805.0;;;26.99;23.30
48644;BME280;34928;37.302;-121.984;2023-02-12T04:05:42;100809.0;;;26.99;23.08
48644;BME280;34928;37.302;-121.984;2023-02-12T04:16:00;100826.0;;;27.17;23.14
48644;BME280;34928;37.302;-121.984;2023-02-12T04:26:14;100800.0;;;26.55;22.89
48644;BME280;34928;37.302;-121.984;2023-02-12T04:36:25;100785.0;;;27.26;22.97
48644;BME280;34928;37.302;-121.984;2023-02-12T04:46:32;100797.0;;;26.52;22.63
48644;BME280;34928;37.302;-121.984;2023-02-12T04:56:37;100842.0;;;27.49;22.80
48644;BME280;34928;37.302;-121.984;2023-02-12T05:06:44;100797.0;;;26.68;22.56
48644;BME280;34928;37.302;-121.984;2023-02-12T05:16:48;100826.0;;;27.11;22.53
48644;BME280;34928;37.302;-121.984;2023-02-12T05:26:52;100828.0;;;26.85;21.97
48644;BME280;34928;37.302;-121.984;2023-02-12T05:36:57;100825.0;;;27.24;22.26
48644;BME280;34928;37.302;-121.984;2023-02-12T05:47:02;100831.0;;;26.98;21.82
48644;BME280;34928;37.302;-121.984;2023-02-12T05:57:07;100825.0;;;27.18;22.13
48644;BME280;34928;37.302;-121.984;2023-02-12T06:07:13;100801.0;;;26.74;21.45
48644;BME280;34928;37.302;-121.984;2023-02-12T06:17:17;100813.0;;;27.22;21.95
48644;BME280;34928;37.302;-121.984;2023-02-12T06:27:22;100809.0;;;26.75;21.38
48644;BME280;34928;37.302;-121.984;2023-02-12T06:37:27;100821.0;;;26.93;21.21
48644;BME280;34928;37.302;-121.984;2023-02-12T06:47:32;100814.0;;;26.93;21.90
48644;BME280;34928;37.302;-121.984;2023-02-12T06:57:37;100809.0;;;26.94;21.81
48644;BME280;34928;37.302;-121.984;2023-02-12T07:07:42;100822.0;;;26.85;21.60
48644;BME280;34928;37.302;-121.984;2023-02-12T07:17:47;100801.0;;;26.80;21.49
48644;BME280;34928;37.302;-121.984;2023-02-12T07:27:52;100805.0;;;26.92;21.50
48644;BME280;34928;37.302;-121.984;2023-02-12T07:37:57;100820.0;;;26.47;21.92
48644;BME280;34928;37.302;-121.984;2023-02-12T07:48:02;100818.0;;;26.75;21.82
48644;BME280;34928;37.302;-121.984;2023-02-12T07:58:07;100825.0;;;26.70;21.91
48644;BME280;34928;37.302;-121.984;2023-02-12T08:08:12;100844.0;;;26.46;21.74
48644;BME280;34928;37.302;-121.984;2023-02-12T08:18:18;100843.0;;;26.11;21.74
48644;BME280;34928;37.302;-121.984;2023-02-12T08:28:23;100858.0;;;26.30;21.48
48644;BME280;34928;37.302;-121.984;2023-02-12T08:38:28;100863.0;;;26.14;21.45
48644;BME280;34928;37.302;-121.984;2023-02-12T08:48:33;100855.0;;;25.82;21.73
48644;BME280;34928;37.302;-121.984;2023-02-12T08:58:37;100848.0;;;25.98;21.66
48644;BME280;34928;37.302;-121.984;2023-02-12T09:08:43;100849.0;;;25.87;21.61
48644;BME280;34928;37.302;-121.984;2023-02-12T09:18:47;100850.0;;;25.71;21.66
48644;BME280;34928;37.302;-121.984;2023-02-12T09:28:53;100853.0;;;25.38;21.65
48644;BME280;34928;37.302;-121.984;2023-02-12T09:38:57;100872.0;;;25.47;21.66
48644;BME280;34928;37.302;-121.984;2023-02-12T09:49:08;100881.0;;;25.35;21.33
48644;BME280;34928;37.302;-121.984;2023-02-12T09:59:19;100892.0;;;25.01;21.42
48644;BME280;34928;37.302;-121.984;2023-02-12T10:09:34;100907.0;;;24.66;21.31
48644;BME280;34928;37.302;-121.984;2023-02-12T10:20:02;100886.0;;;24.64;21.30
48644;BME280;34928;37.302;-121.984;2023-02-12T10:30:20;100894.0;;;24.37;21.36
48644;BME280;34928;37.302;-121.984;2023-02-12T10:40:30;100904.0;;;24.58;21.30
48644;BME280;34928;37.302;-121.984;2023-02-12T10:50:46;100903.0;;;24.12;21.32
48644;BME280;34928;37.302;-121.984;2023-02-12T11:00:57;100895.0;;;24.20;21.56
48644;BME280;34928;37.302;-121.984;2023-02-12T11:11:06;100893.0;;;24.45;21.37
48644;BME280;34928;37.302;-121.984;2023-02-12T11:21:12;100906.0;;;24.32;21.32
48644;BME280;34928;37.302;-121.984;2023-02-12T11:31:22;100903.0;;;24.15;21.34
48644;BME280;34928;37.302;-121.984;2023-02-12T11:41:33;100907.0;;;24.09;21.51
48644;BME280;34928;37.302;-121.984;2023-02-12T11:51:37;100921.0;;;24.09;21.44
48644;BME280;34928;37.302;-121.984;2023-02-12T12:01:42;100908.0;;;23.79;21.37
48644;BME280;34928;37.302;-121.984;2023-02-12T12:11:56;100915.0;;;22.85;21.26
48644;BME280;34928;37.302;-121.984;2023-02-12T12:22:06;100901.0;;;23.94;21.80
48644;BME280;34928;37.302;-121.984;2023-02-12T12:32:14;100888.0;;;23.64;21.23
48644;BME280;34928;37.302;-121.984;2023-02-12T12:52:59;100887.0;;;23.59;21.99
48644;BME280;34928;37.302;-121.984;2023-02-12T13:03:24;100876.0;;;23.59;21.88
48644;BME280;34928;37.302;-121.984;2023-02-12T13:13:36;100871.0;;;23.82;21.50
48644;BME280;34928;37.302;-121.984;2023-02-12T13:23:47;100874.0;;;22.81;21.09
48644;BME280;34928;37.302;-121.984;2023-02-12T13:33:55;100858.0;;;23.79;21.87
48644;BME280;34928;37.302;-121.984;2023-02-12T13:44:12;100863.0;;;23.61;21.49
48644;BME280;34928;37.302;-121.984;2023-02-12T14:04:44;100866.0;;;23.70;21.18
48644;BME280;34928;37.302;-121.984;2023-02-12T14:14:50;100876.0;;;24.09;20.89
48644;BME280;34928;37.302;-121.984;2023-02-12T14:24:58;100881.0;;;24.50;21.14
48644;BME280;34928;37.302;-121.984;2023-02-12T14:45:33;100891.0;;;24.88;21.27
48644;BME280;34928;37.302;-121.984;2023-02-12T14:55:39;100897.0;;;25.20;21.32
48644;BME280;34928;37.302;-121.984;2023-02-12T15:05:53;100913.0;;;25.28;21.16
48644;BME280;34928;37.302;-121.984;2023-02-12T15:16:03;100920.0;;;25.59;21.12
48644;BME280;34928;37.302;-121.984;2023-02-12T15:26:14;100930.0;;;25.77;20.80
48644;BME280;34928;37.302;-121.984;2023-02-12T15:36:21;100945.0;;;25.68;20.62
48644;BME280;34928;37.302;-121.984;2023-02-12T15:46:28;100976.0;;;25.45;20.55
48644;BME280;34928;37.302;-121.984;2023-02-12T15:56:33;100983.0;;;25.75;20.43
48644;BME280;34928;37.302;-121.984;2023-02-12T16:06:38;100984.0;;;26.08;20.69
48644;BME280;34928;37.302;-121.984;2023-02-12T16:16:45;100983.0;;;25.83;20.42
48644;BME280;34928;37.302;-121.984;2023-02-12T16:26:52;100991.0;;;25.60;20.80
48644;BME280;34928;37.302;-121.984;2023-02-12T16:36:58;100991.0;;;25.53;20.18
48644;BME280;34928;37.302;-121.984;2023-02-12T16:47:02;100995.0;;;25.33;20.32
48644;BME280;34928;37.302;-121.984;2023-02-12T16:57:10;100992.0;;;24.78;19.76
48644;BME280;34928;37.302;-121.984;2023-02-12T17:07:19;101001.0;;;25.23;20.75
48644;BME280;34928;37.302;-121.984;2023-02-12T17:17:22;101004.0;;;24.90;20.71
48644;BME280;34928;37.302;-121.984;2023-02-12T17:27:27;100998.0;;;25.37;20.56
48644;BME280;34928;37.302;-121.984;2023-02-12T17:37:32;100994.0;;;24.83;19.45
48644;BME280;34928;37.302;-121.984;2023-02-12T17:47:37;100994.0;;;24.44;20.14
48644;BME280;34928;37.302;-121.984;2023-02-12T17:57:43;100986.0;;;24.47;20.71
48644;BME280;34928;37.302;-121.984;2023-02-12T18:07:48;100983.0;;;24.62;20.72
48644;BME280;34928;37.302;-121.984;2023-02-12T18:17:52;100979.0;;;24.68;20.78
48644;BME280;34928;37.302;-121.984;2023-02-12T18:27:57;100965.0;;;24.84;20.74
48644;BME280;34928;37.302;-121.984;2023-02-12T18:38:02;100971.0;;;24.71;20.72
48644;BME280;34928;37.302;-121.984;2023-02-12T18:48:08;100959.0;;;24.98;20.71
48644;BME280;34928;37.302;-121.984;2023-02-12T18:58:12;100953.0;;;24.42;21.07
48644;BME280;34928;37.302;-121.984;2023-02-12T19:08:17;100945.0;;;24.62;20.99
48644;BME280;34928;37.302;-121.984;2023-02-12T19:18:22;100928.0;;;24.60;21.13
48644;BME280;34928;37.302;-121.984;2023-02-12T19:28:27;100907.0;;;24.41;21.71
48644;BME280;34928;37.302;-121.984;2023-02-12T19:38:33;100886.0;;;24.47;21.68
48644;BME280;34928;37.302;-121.984;2023-02-12T19:48:38;100875.0;;;24.48;20.93
48644;BME280;34928;37.302;-121.984;2023-02-12T19:58:43;100861.0;;;24.70;21.11
48644;BME280;34928;37.302;-121.984;2023-02-12T20:08:47;100855.0;;;24.64;20.13
48644;BME280;34928;37.302;-121.984;2023-02-12T20:18:53;100847.0;;;24.78;21.38
48644;BME280;34928;37.302;-121.984;2023-02-12T20:28:59;100822.0;;;25.12;21.08
48644;BME280;34928;37.302;-121.984;2023-02-12T20:39:05;100797.0;;;25.24;20.54
48644;BME280;34928;37.302;-121.984;2023-02-12T20:49:13;100787.0;;;25.15;21.67
48644;BME280;34928;37.302;-121.984;2023-02-12T20:59:18;100782.0;;;25.01;19.97
48644;BME280;34928;37.302;-121.984;2023-02-12T21:09:22;100756.0;;;25.39;21.67
48644;BME280;34928;37.302;-121.984;2023-02-12T21:19:27;100733.0;;;25.48;21.91
48644;BME280;34928;37.302;-121.984;2023-02-12T21:29:32;100722.0;;;25.75;21.85
48644;BME280;34928;37.302;-121.984;2023-02-12T21:39:37;100709.0;;;25.52;21.93
48644;BME280;34928;37.302;-121.984;2023-02-12T21:49:42;100697.0;;;25.61;22.09
48644;BME280;34928;37.302;-121.984;2023-02-12T21:59:47;100686.0;;;25.64;22.25
48644;BME280;34928;37.302;-121.984;2023-02-12T22:09:55;100680.0;;;25.73;22.42
48644;BME280;34928;37.302;-121.984;2023-02-12T22:20:02;100677.0;;;25.75;22.60
48644;BME280;34928;37.302;-121.984;2023-02-12T22:30:08;100665.0;;;25.81;22.48
48644;BME280;34928;37.302;-121.984;2023-02-12T22:40:14;100661.0;;;25.75;22.87
48644;BME280;34928;37.302;-121.984;2023-02-12T22:50:17;100660.0;;;26.05;23.10
48644;BME280;34928;37.302;-121.984;2023-02-12T23:00:24;100644.0;;;26.09;23.23
48644;BME280;34928;37.302;-121.984;2023-02-12T23:10:28;100641.0;;;26.08;23.43
48644;BME280;34928;37.302;-121.984;2023-02-12T23:20:32;100634.0;;;25.90;23.39
48644;BME280;34928;37.302;-121.984;2023-02-12T23:30:37;100634.0;;;26.25;23.31
48644;BME280;34928;37.302;-121.984;2023-02-12T23:40:44;100640.0;;;26.29;23.41
48644;BME280;34928;37.302;-121.984;2023-02-12T23:50:47;100643.0;;;26.20;23.16
